Time;durP1;ratioP1;P1;durP2;ratioP2;P2;SDS_P1;SDS_P2;PMS_P1;PMS_P2;Temp;Humidity;BMP_temperature;BMP_pressure;BME280_temperature;BME280_humidity;BME280_pressure;Samples;Min_cycle;Max_cycle;Signal;HPM_P1;HPM_P2
2021/01/12 00:00:10;;;;;;;53.80;23.58;;;4.70;98.40;;;;;;5025883;28;20024;-77
2021/01/12 00:02:35;;;;;;;48.23;23.23;;;4.70;98.40;;;;;;5037572;28;20116;-78
2021/01/12 00:05:01;;;;;;;43.88;22.85;;;4.70;98.30;;;;;;5037695;28;21169;-77
2021/01/12 00:07:27;;;;;;;50.80;24.40;;;4.70;98.30;;;;;;5038902;28;20048;-79
2021/01/12 00:09:53;;;;;;;51.80;24.65;;;4.70;98.30;;;;;;5060368;28;20057;-76
2021/01/12 00:12:19;;;;;;;45.92;22.95;;;4.70;98.40;;;;;;5026830;28;20041;-77
2021/01/12 00:14:46;;;;;;;48.58;23.60;;;4.70;98.50;;;;;;5023038;28;20025;-78
2021/01/12 00:17:12;;;;;;;48.10;23.52;;;4.80;98.40;;;;;;5027653;28;20020;-77
2021/01/12 00:19:39;;;;;;;47.42;22.85;;;4.80;98.30;;;;;;5044183;28;20035;-78
2021/01/12 00:22:15;;;;;;;48.85;22.23;;;4.80;98.30;;;;;;5057842;28;20026;-78
2021/01/12 00:24:53;;;;;;;47.55;23.17;;;4.80;98.40;;;;;;5035763;28;20377;-77
2021/01/12 00:27:21;;;;;;;50.90;23.58;;;4.80;98.40;;;;;;5043044;28;20025;-78
2021/01/12 00:29:47;;;;;;;58.28;24.83;;;4.80;98.50;;;;;;5044754;28;20033;-80
2021/01/12 00:32:21;;;;;;;49.15;24.40;;;4.90;98.50;;;;;;5018376;28;20018;-76
2021/01/12 00:34:47;;;;;;;50.50;23.48;;;4.90;98.40;;;;;;5040899;28;20017;-77
2021/01/12 00:37:19;;;;;;;56.58;24.73;;;4.90;98.50;;;;;;5040177;28;20496;-77
2021/01/12 00:39:45;;;;;;;54.33;22.98;;;4.90;98.50;;;;;;5046834;28;20029;-77
2021/01/12 00:42:11;;;;;;;47.22;23.23;;;4.90;98.60;;;;;;5070707;28;20103;-77
2021/01/12 00:44:36;;;;;;;54.10;24.17;;;5.00;98.50;;;;;;5063364;28;20027;-76
2021/01/12 00:47:04;;;;;;;52.67;24.33;;;5.00;98.50;;;;;;5044104;28;20423;-78
2021/01/12 00:49:30;;;;;;;51.38;24.70;;;5.00;98.50;;;;;;5041436;28;20049;-78
2021/01/12 00:51:58;;;;;;;52.13;24.50;;;5.00;98.60;;;;;;5049414;28;20671;-77
2021/01/12 00:54:25;;;;;;;57.90;24.90;;;5.00;98.60;;;;;;5052955;28;20045;-77
2021/01/12 00:56:52;;;;;;;51.00;25.33;;;5.10;98.60;;;;;;5042698;28;20027;-77
2021/01/12 00:59:21;;;;;;;52.05;24.17;;;5.10;98.60;;;;;;5036129;28;20498;-78
2021/01/12 01:01:48;;;;;;;44.78;22.50;;;5.20;98.50;;;;;;5044099;28;20079;-78
2021/01/12 01:04:15;;;;;;;51.35;24.83;;;5.20;98.50;;;;;;5045768;28;20060;-76
2021/01/12 01:06:42;;;;;;;49.78;24.55;;;5.20;98.50;;;;;;5062713;28;20053;-77
2021/01/12 01:09:08;;;;;;;48.58;22.88;;;5.20;98.50;;;;;;5041474;28;20024;-77
2021/01/12 01:11:40;;;;;;;43.60;22.05;;;5.20;98.60;;;;;;5072471;22;20050;-76
2021/01/12 01:14:05;;;;;;;43.63;21.55;;;5.30;98.60;;;;;;5023070;28;20516;-76
2021/01/12 01:16:32;;;;;;;38.38;21.02;;;5.30;98.50;;;;;;5022899;28;20032;-76
2021/01/12 01:18:58;;;;;;;39.90;20.80;;;5.30;98.50;;;;;;5023025;28;20029;-75
2021/01/12 01:21:24;;;;;;;41.88;21.00;;;5.30;98.50;;;;;;5034705;28;20079;-75
2021/01/12 01:23:49;;;;;;;43.78;20.52;;;5.30;98.50;;;;;;4999226;28;20033;-76
2021/01/12 01:26:19;;;;;;;34.88;19.33;;;5.30;98.50;;;;;;5019021;28;20025;-76
2021/01/12 01:28:45;;;;;;;36.75;18.77;;;5.40;98.60;;;;;;5018056;28;20021;-76
2021/01/12 01:31:11;;;;;;;39.33;18.77;;;5.40;98.50;;;;;;5017093;28;20022;-75
2021/01/12 01:33:37;;;;;;;29.30;16.80;;;5.40;98.50;;;;;;5016869;28;20101;-76
2021/01/12 01:36:03;;;;;;;32.83;17.42;;;5.50;98.50;;;;;;5018129;28;20096;-75
2021/01/12 01:38:30;;;;;;;29.48;16.77;;;5.50;98.40;;;;;;4997933;28;20045;-76
2021/01/12 01:40:59;;;;;;;30.92;16.80;;;5.50;98.30;;;;;;5019785;28;20034;-75
2021/01/12 01:43:28;;;;;;;30.80;16.20;;;5.60;98.30;;;;;;5016685;28;20033;-75
2021/01/12 01:45:53;;;;;;;35.75;19.60;;;5.50;98.30;;;;;;5016478;28;20081;-75
2021/01/12 01:48:20;;;;;;;38.03;18.05;;;5.50;98.20;;;;;;5001284;28;20497;-76
2021/01/12 01:50:46;;;;;;;36.08;19.63;;;5.50;98.40;;;;;;5015178;28;20131;-76
2021/01/12 01:53:12;;;;;;;35.03;18.52;;;5.50;98.40;;;;;;5016787;28;20505;-76
2021/01/12 01:55:39;;;;;;;35.20;17.85;;;5.50;98.50;;;;;;5019072;28;20041;-76
2021/01/12 01:58:06;;;;;;;35.53;18.98;;;5.50;98.60;;;;;;5002387;28;20026;-75
2021/01/12 02:00:34;;;;;;;31.77;16.98;;;5.50;98.60;;;;;;4999744;28;20026;-75
2021/01/12 02:03:09;;;;;;;30.90;16.90;;;5.60;98.60;;;;;;5001856;28;20034;-75
2021/01/12 02:05:39;;;;;;;30.83;16.63;;;5.60;98.40;;;;;;5016120;28;20033;-75
2021/01/12 02:08:43;;;;;;;34.63;17.30;;;5.60;98.50;;;;;;5002474;28;20436;-75
2021/01/12 02:11:11;;;;;;;31.27;16.65;;;5.60;98.50;;;;;;5011123;28;20030;-75
2021/01/12 02:13:40;;;;;;;32.03;16.02;;;5.60;98.60;;;;;;5014682;28;20082;-75
2021/01/12 02:16:06;;;;;;;26.50;15.27;;;5.60;98.70;;;;;;5019226;28;20030;-76
2021/01/12 02:18:34;;;;;;;33.92;17.50;;;5.60;98.70;;;;;;5017376;28;20031;-76
2021/01/12 02:21:02;;;;;;;28.13;15.30;;;5.60;98.60;;;;;;5014384;28;20481;-75
2021/01/12 02:24:01;;;;;;;29.23;15.10;;;5.60;98.50;;;;;;5000752;28;20456;-75
2021/01/12 02:26:27;;;;;;;22.90;12.85;;;5.60;98.60;;;;;;5017862;28;20041;-75
2021/01/12 02:28:53;;;;;;;27.92;14.02;;;5.60;98.50;;;;;;5013891;28;20386;-76
2021/01/12 02:31:19;;;;;;;24.77;13.00;;;5.60;98.50;;;;;;5019425;28;20052;-75
2021/01/12 02:33:47;;;;;;;28.02;15.00;;;5.60;98.60;;;;;;5000058;28;20156;-76
2021/01/12 02:36:15;;;;;;;22.20;13.38;;;5.70;98.50;;;;;;4999281;28;20122;-76
2021/01/12 02:38:41;;;;;;;26.23;14.77;;;5.70;98.40;;;;;;4999659;28;20025;-75
2021/01/12 02:41:18;;;;;;;33.25;16.30;;;5.70;98.40;;;;;;5000037;28;20040;-75
2021/01/12 02:43:46;;;;;;;32.03;17.00;;;5.60;98.50;;;;;;5013915;28;20033;-75
2021/01/12 02:46:16;;;;;;;35.00;17.77;;;5.70;98.60;;;;;;5034226;28;20025;-75
2021/01/12 02:48:41;;;;;;;34.65;17.27;;;5.60;98.60;;;;;;5016886;28;20477;-75
2021/01/12 02:51:07;;;;;;;26.95;14.77;;;5.60;98.60;;;;;;5015559;28;20052;-75
2021/01/12 02:53:33;;;;;;;34.13;17.63;;;5.70;98.70;;;;;;5013391;28;20033;-76
2021/01/12 02:55:59;;;;;;;27.83;16.08;;;5.70;98.60;;;;;;5014698;28;20091;-75
2021/01/12 02:58:24;;;;;;;30.38;16.33;;;5.70;98.70;;;;;;5000391;28;20069;-76
2021/01/12 03:00:50;;;;;;;30.13;15.68;;;5.70;98.60;;;;;;5015500;28;20041;-75
2021/01/12 03:03:16;;;;;;;27.25;15.35;;;5.70;98.60;;;;;;5017625;28;20530;-75
2021/01/12 03:05:42;;;;;;;31.65;15.93;;;5.70;98.60;;;;;;5016759;28;20036;-75
2021/01/12 03:08:07;;;;;;;30.77;15.20;;;5.70;98.60;;;;;;4998941;28;20322;-75
2021/01/12 03:10:34;;;;;;;31.15;16.33;;;5.70;98.70;;;;;;5014992;28;20034;-76
2021/01/12 03:12:59;;;;;;;38.78;17.65;;;5.70;98.70;;;;;;5000056;28;20413;-75
2021/01/12 03:15:25;;;;;;;28.25;15.57;;;5.70;98.70;;;;;;5015327;28;20045;-75
2021/01/12 03:17:51;;;;;;;29.05;15.63;;;5.70;98.80;;;;;;5016512;28;20037;-76
2021/01/12 03:20:16;;;;;;;26.13;14.30;;;5.70;98.90;;;;;;5017436;28;20030;-74
2021/01/12 03:22:45;;;;;;;30.45;15.57;;;5.80;98.80;;;;;;4998850;28;20342;-76
2021/01/12 03:25:11;;;;;;;24.65;14.02;;;5.80;98.80;;;;;;5013405;28;20030;-75
2021/01/12 03:27:36;;;;;;;27.02;15.07;;;5.80;98.70;;;;;;5017278;28;20040;-75
2021/01/12 03:30:06;;;;;;;26.08;14.93;;;5.80;98.70;;;;;;4998050;28;20192;-75
2021/01/12 03:32:32;;;;;;;30.98;14.85;;;5.80;98.70;;;;;;5013776;28;20034;-74
2021/01/12 03:34:57;;;;;;;26.90;15.80;;;5.80;98.80;;;;;;5013818;28;20033;-75
2021/01/12 03:37:23;;;;;;;29.13;16.17;;;5.70;98.70;;;;;;5016330;28;20033;-75
2021/01/12 03:39:49;;;;;;;28.48;14.88;;;5.80;98.70;;;;;;4999425;28;20032;-75
2021/01/12 03:42:15;;;;;;;27.33;15.45;;;5.70;98.70;;;;;;4999519;28;20025;-75
2021/01/12 03:44:42;;;;;;;30.33;15.32;;;5.80;98.80;;;;;;4999244;28;20531;-75
2021/01/12 03:47:09;;;;;;;27.02;15.43;;;5.80;98.80;;;;;;4996803;28;20389;-75
2021/01/12 03:49:35;;;;;;;31.02;16.17;;;5.80;98.80;;;;;;4996366;28;20477;-75
2021/01/12 03:52:01;;;;;;;30.50;15.77;;;5.80;98.70;;;;;;4999416;28;20034;-75
2021/01/12 03:54:27;;;;;;;32.17;15.93;;;5.80;98.80;;;;;;5019307;28;20072;-74
2021/01/12 03:56:52;;;;;;;27.38;14.40;;;5.80;98.80;;;;;;5014285;28;20051;-75
2021/01/12 03:59:18;;;;;;;26.70;14.55;;;5.80;98.70;;;;;;5016715;28;20030;-75
2021/01/12 04:01:44;;;;;;;25.02;13.90;;;5.80;98.70;;;;;;5015257;28;20128;-74
2021/01/12 04:04:10;;;;;;;30.17;14.65;;;5.80;98.70;;;;;;5017481;28;20061;-75
2021/01/12 04:06:36;;;;;;;25.83;13.63;;;5.80;98.70;;;;;;5015011;28;20021;-75
2021/01/12 04:09:03;;;;;;;26.38;13.43;;;5.80;98.80;;;;;;5017135;28;20063;-75
2021/01/12 04:11:30;;;;;;;24.55;13.32;;;5.80;98.70;;;;;;5014591;28;20112;-74
2021/01/12 04:13:56;;;;;;;27.13;13.05;;;5.80;98.70;;;;;;5015333;28;20025;-74
2021/01/12 04:16:25;;;;;;;27.63;13.15;;;5.80;98.70;;;;;;4998142;28;20515;-76
2021/01/12 04:18:51;;;;;;;27.73;14.30;;;5.80;98.70;;;;;;5014352;28;20076;-75
2021/01/12 04:21:16;;;;;;;27.95;13.32;;;5.90;98.90;;;;;;4999603;28;20398;-74
2021/01/12 04:23:43;;;;;;;26.95;13.88;;;5.80;99.00;;;;;;5016012;28;20033;-75
2021/01/12 04:26:08;;;;;;;28.02;12.90;;;5.90;98.80;;;;;;4999977;28;20088;-75
2021/01/12 04:28:34;;;;;;;23.83;12.63;;;5.80;98.90;;;;;;5000897;28;20040;-75
2021/01/12 04:31:00;;;;;;;23.48;12.80;;;5.80;98.90;;;;;;4998192;28;20108;-75
2021/01/12 04:33:26;;;;;;;27.05;13.40;;;5.90;98.90;;;;;;5016267;28;20044;-75
2021/01/12 04:35:51;;;;;;;23.38;11.48;;;5.80;98.90;;;;;;4999257;28;20080;-75
2021/01/12 04:38:17;;;;;;;26.00;12.48;;;5.90;98.90;;;;;;5032707;28;20034;-75
2021/01/12 04:40:43;;;;;;;24.60;11.65;;;5.90;98.90;;;;;;5017663;28;20036;-75
2021/01/12 04:43:12;;;;;;;20.80;11.10;;;5.90;98.90;;;;;;5015440;28;20030;-75
2021/01/12 04:45:37;;;;;;;23.25;10.57;;;5.80;98.90;;;;;;5019240;28;20129;-75
2021/01/12 04:48:04;;;;;;;24.95;12.20;;;5.90;98.90;;;;;;5020255;28;20113;-74
2021/01/12 04:50:30;;;;;;;21.20;10.68;;;5.90;98.90;;;;;;5036045;28;20080;-75
2021/01/12 04:52:55;;;;;;;17.02;8.40;;;5.90;98.90;;;;;;5019585;28;20030;-75
2021/01/12 04:55:22;;;;;;;17.17;8.63;;;5.90;98.90;;;;;;5005682;28;20061;-75
2021/01/12 04:57:49;;;;;;;14.52;6.60;;;5.90;98.90;;;;;;5019475;28;20112;-75
2021/01/12 05:00:28;;;;;;;13.13;6.55;;;5.90;99.00;;;;;;5016857;28;20033;-74
2021/01/12 05:03:03;;;;;;;10.52;5.90;;;5.90;98.90;;;;;;5017303;28;20030;-75
2021/01/12 05:05:30;;;;;;;5.40;2.72;;;5.90;98.90;;;;;;5001131;28;20022;-75
2021/01/12 05:08:07;;;;;;;5.25;2.40;;;5.90;99.10;;;;;;5021737;28;20022;-75
2021/01/12 05:10:37;;;;;;;4.57;1.73;;;5.90;98.80;;;;;;5017288;28;20057;-75
2021/01/12 05:13:11;;;;;;;5.78;2.17;;;5.80;98.70;;;;;;5031019;28;20120;-75
2021/01/12 05:15:40;;;;;;;8.20;1.52;;;5.80;98.70;;;;;;5012148;28;20037;-75
2021/01/12 05:18:08;;;;;;;3.05;1.40;;;5.80;98.70;;;;;;5018837;28;20121;-75
2021/01/12 05:20:38;;;;;;;6.10;1.60;;;5.80;98.70;;;;;;5017020;28;20113;-75
2021/01/12 05:23:07;;;;;;;5.38;1.48;;;5.70;98.60;;;;;;5018442;28;20028;-74
2021/01/12 05:25:39;;;;;;;4.47;1.50;;;5.70;98.70;;;;;;5016247;28;20053;-74
2021/01/12 05:28:06;;;;;;;3.92;1.40;;;5.70;98.70;;;;;;5034783;28;20029;-73
2021/01/12 05:30:32;;;;;;;8.50;1.58;;;5.70;98.70;;;;;;5000167;28;20045;-74
2021/01/12 05:32:59;;;;;;;6.25;1.30;;;5.70;98.70;;;;;;5018989;28;20022;-74
2021/01/12 05:35:29;;;;;;;6.20;2.00;;;5.70;98.80;;;;;;5012390;28;20034;-74
2021/01/12 05:38:00;;;;;;;3.08;1.33;;;5.70;98.70;;;;;;5021532;28;20026;-74
2021/01/12 05:40:32;;;;;;;4.82;1.33;;;5.60;98.70;;;;;;5015556;28;20025;-74
2021/01/12 05:43:12;;;;;;;9.88;2.28;;;5.60;98.70;;;;;;5018116;28;20064;-75
2021/01/12 05:45:40;;;;;;;7.38;1.90;;;5.60;98.70;;;;;;5016518;28;20033;-73
2021/01/12 05:48:06;;;;;;;7.65;1.38;;;5.60;98.70;;;;;;5020789;28;20405;-74
2021/01/12 05:50:33;;;;;;;5.93;1.77;;;5.60;98.90;;;;;;5017730;28;20463;-74
2021/01/12 05:53:07;;;;;;;6.82;1.60;;;5.60;98.70;;;;;;5018843;28;20025;-74
2021/01/12 05:55:40;;;;;;;5.57;1.60;;;5.60;98.70;;;;;;5017072;28;20034;-73
2021/01/12 05:58:30;;;;;;;5.03;1.52;;;5.60;98.60;;;;;;5018046;28;20517;-74
2021/01/12 06:01:01;;;;;;;7.27;1.73;;;5.60;98.70;;;;;;5016931;28;20075;-74
2021/01/12 06:03:29;;;;;;;4.78;1.20;;;5.60;98.70;;;;;;5016952;28;20041;-75
2021/01/12 06:05:55;;;;;;;1.75;0.63;;;5.50;98.50;;;;;;5015639;28;20521;-75
2021/01/12 06:08:21;;;;;;;1.85;0.45;;;5.30;97.40;;;;;;5015587;28;20033;-75
2021/01/12 06:10:47;;;;;;;1.85;0.65;;;5.10;97.30;;;;;;5017739;28;20021;-75
2021/01/12 06:13:18;;;;;;;2.13;0.50;;;5.00;97.80;;;;;;5016586;28;20030;-75
2021/01/12 06:15:48;;;;;;;2.08;0.55;;;4.90;97.60;;;;;;4999096;28;20037;-75
2021/01/12 06:18:15;;;;;;;7.40;0.57;;;4.80;97.70;;;;;;4998680;28;20033;-75
2021/01/12 06:20:44;;;;;;;1.10;0.35;;;4.90;98.30;;;;;;5016233;28;20033;-75
2021/01/12 06:23:17;;;;;;;5.20;0.63;;;4.80;97.90;;;;;;5018730;28;20128;-75
2021/01/12 06:25:44;;;;;;;7.47;0.60;;;4.70;97.70;;;;;;5015892;28;20021;-74
2021/01/12 06:28:10;;;;;;;3.60;0.57;;;4.70;97.90;;;;;;5002247;28;20025;-75
2021/01/12 06:30:36;;;;;;;3.97;0.55;;;4.70;97.50;;;;;;5020010;28;20041;-74
2021/01/12 06:33:03;;;;;;;5.95;1.20;;;4.60;97.60;;;;;;5015397;28;20029;-75
2021/01/12 06:35:29;;;;;;;4.03;0.60;;;4.50;97.70;;;;;;5019055;28;20038;-74
2021/01/12 06:37:58;;;;;;;2.58;0.57;;;4.50;97.70;;;;;;5017126;28;20034;-74
2021/01/12 06:40:25;;;;;;;2.00;0.60;;;4.40;97.80;;;;;;5017743;28;20507;-74
2021/01/12 06:42:56;;;;;;;3.83;0.50;;;4.40;97.90;;;;;;5016485;28;20042;-74
2021/01/12 06:45:23;;;;;;;4.43;0.50;;;4.40;97.90;;;;;;5011886;28;20180;-74
2021/01/12 06:47:49;;;;;;;2.80;0.30;;;4.40;97.40;;;;;;5011061;28;20461;-74
2021/01/12 06:50:18;;;;;;;4.07;0.43;;;4.30;97.40;;;;;;5008057;28;20045;-73
2021/01/12 06:52:46;;;;;;;2.67;0.45;;;4.30;97.50;;;;;;4993142;28;20509;-73
2021/01/12 06:55:14;;;;;;;6.03;0.85;;;4.20;97.40;;;;;;5035384;28;20018;-75
2021/01/12 06:57:44;;;;;;;4.47;0.75;;;4.20;97.50;;;;;;5013019;28;20080;-75
2021/01/12 07:00:11;;;;;;;4.90;0.87;;;4.20;97.60;;;;;;4995416;28;20088;-74
2021/01/12 07:02:36;;;;;;;5.13;0.70;;;4.20;97.60;;;;;;5016494;28;20025;-73
2021/01/12 07:05:05;;;;;;;9.65;0.60;;;4.10;97.60;;;;;;4996063;28;20396;-73
2021/01/12 07:07:32;;;;;;;3.78;0.60;;;4.20;97.80;;;;;;5026362;28;20109;-74
2021/01/12 07:10:00;;;;;;;2.88;0.50;;;4.20;97.90;;;;;;5032104;28;20030;-73
2021/01/12 07:12:28;;;;;;;5.25;0.52;;;4.20;97.90;;;;;;5012820;28;20025;-73
2021/01/12 07:15:03;;;;;;;2.75;0.65;;;4.20;97.90;;;;;;5013908;28;20021;-72
2021/01/12 07:17:31;;;;;;;2.97;0.70;;;4.20;97.80;;;;;;5011239;28;20033;-73
2021/01/12 07:20:06;;;;;;;1.80;0.47;;;4.20;97.80;;;;;;5011158;28;20022;-73
2021/01/12 07:22:37;;;;;;;4.68;0.60;;;4.20;97.90;;;;;;5015148;28;20025;-75
2021/01/12 07:25:08;;;;;;;4.60;0.88;;;4.20;97.90;;;;;;4998725;28;20105;-75
2021/01/12 07:27:34;;;;;;;2.60;0.70;;;4.20;97.80;;;;;;5015440;28;20024;-75
2021/01/12 07:30:04;;;;;;;3.08;0.60;;;4.20;97.80;;;;;;5013902;28;20052;-75
2021/01/12 07:32:32;;;;;;;6.95;0.98;;;4.20;97.90;;;;;;5010606;28;20014;-75
2021/01/12 07:35:05;;;;;;;4.68;0.95;;;4.20;98.00;;;;;;5015826;28;20022;-76
2021/01/12 07:37:34;;;;;;;3.30;0.90;;;4.20;98.10;;;;;;5013777;28;20025;-75
2021/01/12 07:40:00;;;;;;;7.63;1.20;;;4.20;97.90;;;;;;5011087;28;20034;-75
2021/01/12 07:42:27;;;;;;;7.70;1.33;;;4.20;97.90;;;;;;5015184;28;20025;-74
2021/01/12 07:44:53;;;;;;;4.22;1.33;;;4.20;97.90;;;;;;5008789;28;20049;-74
2021/01/12 07:47:19;;;;;;;6.70;1.38;;;4.20;97.90;;;;;;4994099;28;20667;-74
2021/01/12 07:49:49;;;;;;;5.22;1.17;;;4.30;97.50;;;;;;4995619;28;20028;-73
2021/01/12 07:52:17;;;;;;;7.53;1.13;;;4.20;97.50;;;;;;5012963;28;20029;-76
2021/01/12 07:54:43;;;;;;;8.38;1.23;;;4.20;97.80;;;;;;5010820;28;20068;-76
2021/01/12 07:57:12;;;;;;;4.55;1.05;;;4.20;97.80;;;;;;4991492;28;20058;-76
2021/01/12 07:59:39;;;;;;;5.30;0.98;;;4.20;98.10;;;;;;5013938;28;20030;-76
2021/01/12 08:02:08;;;;;;;5.70;1.10;;;4.20;97.80;;;;;;5011338;28;20029;-74
2021/01/12 08:04:37;;;;;;;7.90;1.30;;;4.20;97.90;;;;;;5024238;28;20034;-74
2021/01/12 08:07:03;;;;;;;10.40;1.30;;;4.20;97.90;;;;;;5028209;28;20049;-74
2021/01/12 08:09:28;;;;;;;4.28;1.20;;;4.20;97.90;;;;;;5014283;28;20026;-74
2021/01/12 08:11:59;;;;;;;9.55;1.70;;;4.20;97.80;;;;;;4996762;28;20026;-75
2021/01/12 08:14:25;;;;;;;7.10;1.35;;;4.20;97.80;;;;;;5032005;28;20046;-75
2021/01/12 08:16:53;;;;;;;9.10;1.45;;;4.20;98.00;;;;;;4992950;28;20038;-75
2021/01/12 08:19:26;;;;;;;6.38;1.90;;;4.20;98.00;;;;;;5027944;28;20421;-75
2021/01/12 08:21:52;;;;;;;9.90;2.05;;;4.20;97.90;;;;;;5018389;28;20041;-75
2021/01/12 08:24:26;;;;;;;5.18;1.23;;;4.20;97.90;;;;;;4996519;28;20389;-74
2021/01/12 08:26:57;;;;;;;6.72;1.45;;;4.20;97.90;;;;;;5014954;28;20030;-75
2021/01/12 08:29:24;;;;;;;;;;;4.20;97.80;;;;;;5004200;28;20473;-75
2021/01/12 08:31:59;;;;;;;8.45;1.63;;;4.20;97.90;;;;;;5016200;28;19913;-75
2021/01/12 08:34:26;;;;;;;6.95;1.88;;;4.20;97.80;;;;;;5036363;28;20485;-74
2021/01/12 08:36:55;;;;;;;10.10;1.27;;;4.20;97.70;;;;;;5017376;28;20076;-74
2021/01/12 08:39:23;;;;;;;10.07;1.42;;;4.20;97.80;;;;;;5001764;28;20022;-75
2021/01/12 08:41:51;;;;;;;5.90;1.45;;;4.20;97.70;;;;;;5000506;28;20025;-75
2021/01/12 08:44:20;;;;;;;3.88;1.23;;;4.20;97.70;;;;;;5036894;28;20017;-76
2021/01/12 08:46:45;;;;;;;9.75;1.45;;;4.30;97.70;;;;;;5017258;28;20026;-75
2021/01/12 08:49:14;;;;;;;6.32;1.35;;;4.20;97.70;;;;;;5023211;28;20994;-76
2021/01/12 08:51:41;;;;;;;13.45;1.60;;;4.20;97.80;;;;;;5019011;28;20033;-77
2021/01/12 08:54:07;;;;;;;12.98;1.40;;;4.30;97.80;;;;;;5010659;28;20036;-74
2021/01/12 08:56:33;;;;;;;9.80;2.05;;;4.30;97.80;;;;;;5016846;28;20033;-75
2021/01/12 08:59:07;;;;;;;7.70;1.75;;;4.30;97.80;;;;;;5013299;28;20021;-75
2021/01/12 09:01:37;;;;;;;10.57;1.60;;;4.30;97.70;;;;;;5015908;28;20679;-75
2021/01/12 09:04:04;;;;;;;16.35;1.88;;;4.30;97.70;;;;;;5001072;28;20029;-75
2021/01/12 09:06:30;;;;;;;8.15;1.48;;;4.30;97.80;;;;;;5018476;28;20523;-75
2021/01/12 09:09:09;;;;;;;6.35;1.10;;;4.30;97.70;;;;;;5019222;28;20029;-76
2021/01/12 09:11:37;;;;;;;6.28;1.30;;;4.30;97.70;;;;;;5018267;28;20521;-75
2021/01/12 09:14:07;;;;;;;7.10;1.52;;;4.30;97.60;;;;;;5014353;28;20068;-75
2021/01/12 09:16:33;;;;;;;8.23;1.45;;;4.30;97.60;;;;;;5003375;28;20032;-75
2021/01/12 09:18:59;;;;;;;9.88;2.00;;;4.30;97.30;;;;;;5035585;28;20034;-76
2021/01/12 09:21:25;;;;;;;6.38;1.45;;;4.30;97.30;;;;;;5015458;28;20030;-75
2021/01/12 09:23:50;;;;;;;6.25;1.80;;;4.30;97.20;;;;;;5001118;28;20037;-75
2021/01/12 09:26:20;;;;;;;8.07;2.20;;;4.30;97.30;;;;;;5038934;28;20018;-75
2021/01/12 09:28:49;;;;;;;8.30;1.70;;;4.20;97.50;;;;;;5013070;28;20109;-75
2021/01/12 09:31:17;;;;;;;7.82;1.60;;;4.20;97.40;;;;;;5013978;28;20088;-76
2021/01/12 09:33:53;;;;;;;8.18;1.65;;;4.20;97.30;;;;;;5027820;28;20085;-75
2021/01/12 09:36:23;;;;;;;7.47;1.38;;;4.10;97.20;;;;;;5019487;28;20072;-75
2021/01/12 09:38:53;;;;;;;7.53;1.58;;;4.10;97.40;;;;;;5017343;28;20030;-75
2021/01/12 09:41:26;;;;;;;8.38;1.58;;;4.10;97.50;;;;;;5017924;28;20033;-76
2021/01/12 09:43:53;;;;;;;7.88;1.45;;;4.10;97.50;;;;;;5016450;28;20034;-76
2021/01/12 09:46:20;;;;;;;11.00;2.17;;;4.00;97.50;;;;;;5032992;28;20064;-76
2021/01/12 09:48:47;;;;;;;8.23;1.60;;;4.00;97.30;;;;;;5017583;28;20034;-77
2021/01/12 09:51:14;;;;;;;10.43;1.55;;;4.00;97.30;;;;;;5000952;28;20057;-76
2021/01/12 09:53:47;;;;;;;6.38;1.80;;;4.00;97.40;;;;;;5016626;28;20036;-76
2021/01/12 09:56:17;;;;;;;12.15;1.88;;;4.00;97.30;;;;;;5017771;28;20030;-76
2021/01/12 09:58:51;;;;;;;13.02;2.25;;;3.90;97.30;;;;;;5002233;28;20033;-76
2021/01/12 10:01:19;;;;;;;7.90;1.73;;;3.90;97.30;;;;;;5017789;28;20026;-77
2021/01/12 10:03:46;;;;;;;7.40;1.35;;;3.90;97.20;;;;;;5013216;28;20034;-76
2021/01/12 10:06:21;;;;;;;6.97;1.45;;;3.90;97.10;;;;;;4994713;28;20113;-76
2021/01/12 10:08:47;;;;;;;5.78;0.90;;;3.90;97.10;;;;;;5012358;28;20154;-76
2021/01/12 10:11:14;;;;;;;5.95;1.30;;;3.90;97.00;;;;;;5011745;28;20455;-78
2021/01/12 10:13:43;;;;;;;8.57;1.42;;;3.90;97.10;;;;;;5000911;28;20492;-76
2021/01/12 10:16:08;;;;;;;8.85;1.17;;;3.90;97.00;;;;;;5018537;28;20078;-76
2021/01/12 10:18:34;;;;;;;7.55;1.38;;;3.90;97.20;;;;;;5014644;28;20033;-76
2021/01/12 10:21:00;;;;;;;7.00;1.20;;;4.00;96.80;;;;;;5015889;28;20033;-77
2021/01/12 10:23:26;;;;;;;5.32;1.10;;;4.00;96.60;;;;;;5018543;28;20037;-77
2021/01/12 10:25:53;;;;;;;5.38;1.30;;;4.00;96.60;;;;;;5015456;28;20559;-77
2021/01/12 10:28:19;;;;;;;11.52;2.03;;;4.00;96.40;;;;;;5013035;28;20401;-77
2021/01/12 10:30:44;;;;;;;11.50;1.73;;;4.00;96.60;;;;;;5011961;28;20018;-77
2021/01/12 10:33:10;;;;;;;18.20;1.70;;;3.90;96.60;;;;;;5015948;28;20034;-76
2021/01/12 10:35:36;;;;;;;7.65;1.50;;;3.90;96.70;;;;;;5032013;28;20026;-77
2021/01/12 10:38:02;;;;;;;10.52;1.40;;;3.90;96.50;;;;;;5030190;28;20026;-78
2021/01/12 10:40:27;;;;;;;9.52;2.22;;;3.90;96.80;;;;;;5015130;28;20029;-77
2021/01/12 10:42:53;;;;;;;11.27;1.38;;;3.90;96.60;;;;;;4997505;28;20057;-77
2021/01/12 10:45:19;;;;;;;8.65;1.02;;;3.90;96.60;;;;;;5014616;28;20108;-77
2021/01/12 10:47:45;;;;;;;5.57;1.23;;;3.90;96.70;;;;;;5012525;28;20037;-78
2021/01/12 10:50:16;;;;;;;13.25;1.45;;;3.90;96.60;;;;;;5021986;28;20032;-77
2021/01/12 10:52:42;;;;;;;9.55;1.50;;;3.90;96.70;;;;;;5017865;28;20030;-76
2021/01/12 10:55:12;;;;;;;7.85;1.25;;;3.90;96.80;;;;;;5011230;28;20022;-74
2021/01/12 10:57:38;;;;;;;12.00;1.00;;;3.90;96.70;;;;;;5012880;28;20021;-75
2021/01/12 11:00:05;;;;;;;9.10;1.20;;;3.90;96.60;;;;;;5014434;28;20083;-74
2021/01/12 11:02:32;;;;;;;8.05;1.20;;;3.90;96.30;;;;;;4994960;28;20084;-75
2021/01/12 11:04:58;;;;;;;3.30;0.93;;;3.90;96.50;;;;;;5012410;28;20522;-75
2021/01/12 11:07:24;;;;;;;11.82;1.40;;;4.00;96.30;;;;;;5013271;28;20026;-75
2021/01/12 11:09:50;;;;;;;12.52;1.30;;;4.00;96.50;;;;;;5011134;28;20026;-72
2021/01/12 11:12:15;;;;;;;7.65;1.20;;;4.00;96.40;;;;;;5013959;28;20026;-74
2021/01/12 11:14:42;;;;;;;12.75;1.58;;;4.00;96.10;;;;;;5010730;28;20049;-74
2021/01/12 11:17:11;;;;;;;13.32;1.27;;;3.90;95.70;;;;;;5012131;28;20485;-73
2021/01/12 11:19:38;;;;;;;10.35;1.35;;;3.90;96.60;;;;;;5022179;28;20041;-74
2021/01/12 11:22:03;;;;;;;8.40;1.02;;;4.00;96.50;;;;;;5011456;28;20025;-74
2021/01/12 11:24:29;;;;;;;13.90;1.50;;;4.00;96.50;;;;;;5001575;28;20083;-76
2021/01/12 11:26:55;;;;;;;11.50;1.92;;;4.00;96.10;;;;;;5011265;28;20040;-74
2021/01/12 11:29:21;;;;;;;7.90;1.30;;;4.00;95.90;;;;;;4996927;28;20030;-74
2021/01/12 11:31:47;;;;;;;8.93;1.20;;;4.10;95.50;;;;;;5013965;28;20622;-74
2021/01/12 11:34:13;;;;;;;10.00;1.48;;;4.10;95.30;;;;;;4995207;28;20026;-75
2021/01/12 11:36:42;;;;;;;8.80;1.10;;;4.10;95.50;;;;;;5029918;28;20445;-77
2021/01/12 11:39:09;;;;;;;9.45;1.00;;;4.10;95.50;;;;;;5006314;28;20175;-75
2021/01/12 11:41:45;;;;;;;10.40;1.00;;;4.10;95.60;;;;;;5030297;28;20112;-73
2021/01/12 11:44:11;;;;;;;6.07;1.33;;;4.10;95.40;;;;;;5009518;28;20047;-74
2021/01/12 11:46:36;;;;;;;4.68;1.20;;;4.10;95.20;;;;;;5015650;28;20096;-76
2021/01/12 11:49:02;;;;;;;6.35;1.40;;;4.20;94.60;;;;;;4996442;28;20161;-75
2021/01/12 11:51:38;;;;;;;12.48;1.30;;;4.10;95.20;;;;;;5010987;28;20091;-75
2021/01/12 11:54:04;;;;;;;6.95;1.02;;;4.10;95.00;;;;;;5010551;28;20124;-76
2021/01/12 11:56:30;;;;;;;4.55;0.93;;;4.20;94.60;;;;;;5017913;28;20029;-75
2021/01/12 11:58:56;;;;;;;9.23;1.33;;;4.20;94.40;;;;;;5016835;28;20528;-75
2021/01/12 12:01:22;;;;;;;8.00;0.93;;;4.10;94.70;;;;;;5019508;28;20380;-77
2021/01/12 12:03:48;;;;;;;10.30;1.42;;;4.10;94.90;;;;;;5035095;28;20120;-77
2021/01/12 12:06:13;;;;;;;3.88;0.90;;;4.20;94.50;;;;;;5019169;28;20021;-76
2021/01/12 12:08:39;;;;;;;7.35;1.77;;;4.20;94.50;;;;;;5020595;28;20061;-74
2021/01/12 12:11:05;;;;;;;4.82;1.02;;;4.20;94.90;;;;;;5018574;28;20030;-73
2021/01/12 12:13:36;;;;;;;12.93;1.50;;;4.20;94.60;;;;;;5002527;28;20087;-76
2021/01/12 12:16:02;;;;;;;8.63;1.30;;;4.20;94.70;;;;;;5028723;28;20030;-76
2021/01/12 12:18:28;;;;;;;10.00;2.25;;;4.20;94.70;;;;;;5017837;28;20044;-77
2021/01/12 12:20:54;;;;;;;6.13;0.90;;;4.20;94.40;;;;;;5007982;28;20037;-75
2021/01/12 12:23:19;;;;;;;10.18;1.27;;;4.30;94.10;;;;;;5004557;28;20125;-75
2021/01/12 12:25:45;;;;;;;10.18;1.60;;;4.30;94.30;;;;;;5023254;28;20087;-75
2021/01/12 12:28:11;;;;;;;7.82;1.73;;;4.40;93.60;;;;;;5013335;28;20021;-76
2021/01/12 12:30:36;;;;;;;9.57;1.45;;;4.40;93.70;;;;;;5014762;28;20026;-77
2021/01/12 12:33:02;;;;;;;12.10;1.60;;;4.50;92.60;;;;;;5018038;28;20436;-77
2021/01/12 12:35:28;;;;;;;13.75;4.93;;;4.50;92.70;;;;;;4998771;28;20040;-77
2021/01/12 12:37:53;;;;;;;10.85;2.60;;;4.50;93.10;;;;;;5036767;28;20025;-77
2021/01/12 12:40:19;;;;;;;9.15;1.83;;;4.60;93.60;;;;;;5000248;28;20029;-76
2021/01/12 12:42:45;;;;;;;12.70;1.38;;;4.70;93.40;;;;;;5018185;28;21632;-76
2021/01/12 12:45:11;;;;;;;10.02;1.10;;;4.70;92.80;;;;;;5041533;28;20048;-77
2021/01/12 12:47:41;;;;;;;7.95;1.38;;;4.80;92.10;;;;;;5015646;28;20636;-77
2021/01/12 12:50:07;;;;;;;7.75;1.40;;;4.70;91.80;;;;;;5018247;28;20018;-77